| time (UTC) | temp F | wind direction | speed MPH | gust MPH | rain 1hr in | rain 24hr in | rain mn in | humidity % | barometer mb |
| 20260503020004 | 52 | 163 | 6.0 | 8.0 | 0.00 | 0.00 | 0.00 | 51 | 1009.1 |
| 20260503015004 | 52 | 177 | 5.0 | 8.0 | 0.00 | 0.00 | 0.00 | 50 | 1009.1 |
| 20260503013004 | 53 | 168 | 5.0 | 8.0 | 0.00 | 0.00 | 0.00 | 49 | 1009.1 |
| 20260503012004 | 54 | 183 | 5.0 | 8.0 | 0.00 | 0.00 | 0.00 | 49 | 1009.1 |
| 20260503005003 | 55 | 208 | 6.0 | 12.0 | 0.00 | 0.00 | 0.00 | 47 | 1009.3 |
| 20260503004003 | 56 | 224 | 6.0 | 12.0 | 0.00 | 0.00 | 0.00 | 46 | 1009.3 |
| 20260503003003 | 56 | 191 | 5.0 | 13.0 | 0.00 | 0.00 | 0.00 | 48 | 1009.8 |
| 20260503002003 | 56 | 205 | 4.0 | 13.0 | 0.00 | 0.00 | 0.00 | 50 | 1009.8 |
| 20260503001003 | 56 | 213 | 5.0 | 12.0 | 0.00 | 0.00 | 0.00 | 48 | 1009.8 |
| 20260503000003 | 57 | 237 | 5.0 | 10.0 | 0.00 | 0.00 | 0.00 | 50 | 1009.8 |
| 20260502235003 | 57 | 229 | 12.0 | 16.0 | 0.00 | 0.00 | 0.00 | 48 | 1010.7 |
| 20260502234003 | 57 | 242 | 10.0 | 18.0 | 0.00 | 0.00 | 0.00 | 47 | 1010.7 |
| 20260502233003 | 57 | 224 | 16.0 | 21.0 | 0.00 | 0.00 | 0.00 | 47 | 1010.7 |
| 20260502231003 | 58 | 214 | 11.0 | 18.0 | 0.00 | 0.00 | 0.00 | 46 | 1010.7 |
| 20260502230003 | 59 | 225 | 12.0 | 18.0 | 0.00 | 0.00 | 0.00 | 42 | 1010.7 |
| 20260502225003 | 58 | 227 | 10.0 | 20.0 | 0.00 | 0.00 | 0.00 | 45 | 1010.7 |
| 20260502224003 | 59 | 248 | 14.0 | 20.0 | 0.00 | 0.00 | 0.00 | 43 | 1010.7 |
| 20260502223003 | 59 | 223 | 12.0 | 18.0 | 0.00 | 0.00 | 0.00 | 37 | 1010.7 |
| 20260502222003 | 59 | 220 | 10.0 | 20.0 | 0.00 | 0.00 | 0.00 | 41 | 1010.7 |
| 20260502221006 | 59 | 199 | 7.0 | 16.0 | 0.00 | 0.00 | 0.00 | 38 | 1010.7 |
| 20260502220002 | 58 | 242 | 7.0 | 13.0 | 0.00 | 0.00 | 0.00 | 42 | 1010.7 |
| 20260502215003 | 58 | 267 | 7.0 | 12.0 | 0.00 | 0.00 | 0.00 | 43 | 1010.7 |
| 20260502214003 | 58 | 209 | 10.0 | 18.0 | 0.00 | 0.00 | 0.00 | 37 | 1011.4 |
| 20260502213003 | 58 | 229 | 10.0 | 14.0 | 0.00 | 0.00 | 0.00 | 39 | 1011.4 |
| 20260502212003 | 58 | 243 | 13.0 | 18.0 | 0.00 | 0.00 | 0.00 | 39 | 1011.4 |
| 20260502211004 | 59 | 237 | 10.0 | 17.0 | 0.00 | 0.00 | 0.00 | 36 | 1011.4 |
| 20260502210002 | 59 | 224 | 9.0 | 18.0 | 0.00 | 0.00 | 0.00 | 37 | 1011.4 |
| 20260502205003 | 60 | 218 | 9.0 | 14.0 | 0.00 | 0.00 | 0.00 | 33 | 1011.4 |
| 20260502203003 | 58 | 217 | 7.0 | 14.0 | 0.00 | 0.00 | 0.00 | 36 | 1011.9 |
| 20260502201003 | 59 | 232 | 10.0 | 20.0 | 0.00 | 0.00 | 0.00 | 37 | 1011.9 |
| 20260502194003 | 58 | 240 | 7.0 | 10.0 | 0.00 | 0.00 | 0.00 | 35 | 1012.7 |
| 20260502193003 | 58 | 229 | 9.0 | 17.0 | 0.00 | 0.00 | 0.00 | 39 | 1012.7 |
| 20260502192003 | 58 | 241 | 10.0 | 15.0 | 0.00 | 0.00 | 0.00 | 34 | 1012.7 |
| 20260502190003 | 57 | 237 | 3.0 | 13.0 | 0.00 | 0.00 | 0.00 | 35 | 1013.5 |
| 20260502185003 | 57 | 248 | 12.0 | 16.0 | 0.00 | 0.00 | 0.00 | 35 | 1013.5 |
| 20260502182003 | 57 | 260 | 6.0 | 10.0 | 0.00 | 0.00 | 0.00 | 35 | 1014.7 |
| 20260502181003 | 55 | 358 | 9.0 | 14.0 | 0.00 | 0.00 | 0.00 | 33 | 1014.7 |
| 20260502163003 | 53 | 262 | 5.0 | 13.0 | 0.00 | 0.00 | 0.00 | 38 | 1015.4 |
| 20260502162003 | 52 | 235 | 6.0 | 12.0 | 0.00 | 0.00 | 0.00 | 42 | 1015.8 |
| 20260502161003 | 52 | 259 | 10.0 | 17.0 | 0.00 | 0.00 | 0.00 | 42 | 1015.8 |
| 20260502151003 | 47 | 265 | 5.0 | 9.0 | 0.00 | 0.00 | 0.00 | 48 | 1016.0 |
| 20260502123003 | 28 | 182 | 2.0 | 5.0 | 0.00 | 0.00 | 0.00 | 90 | 1016.9 |
| 20260502121003 | 26 | 171 | 2.0 | 5.0 | 0.00 | 0.00 | 0.00 | 90 | 1016.9 |
| 20260502114003 | 25 | 171 | 3.0 | 3.0 | 0.00 | 0.00 | 0.00 | 89 | 1016.9 |
| 20260502113003 | 25 | 171 | 2.0 | 5.0 | 0.00 | 0.00 | 0.00 | 89 | 1016.9 |
| 20260502112003 | 25 | 171 | 3.0 | 3.0 | 0.00 | 0.00 | 0.00 | 89 | 1016.9 |
| 20260502110003 | 25 | 171 | 4.0 | 5.0 | 0.00 | 0.00 | 0.00 | 88 | 1016.9 |
| 20260502104003 | 25 | 166 | 3.0 | 5.0 | 0.00 | 0.00 | 0.00 | 89 | 1016.9 |
| 20260502101008 | 25 | 185 | 4.0 | 7.0 | 0.00 | 0.00 | 0.00 | 88 | 1016.9 |
| 20260502091003 | 26 | 198 | 2.0 | 3.0 | 0.00 | 0.00 | 0.00 | 89 | 1017.1 |
| 20260502071003 | 28 | 187 | 2.0 | 3.0 | 0.00 | 0.00 | 0.00 | 88 | 1017.7 |
| 20260502070002 | 28 | 187 | 2.0 | 3.0 | 0.00 | 0.00 | 0.00 | 87 | 1017.7 |
| 20260502065003 | 28 | 187 | 2.0 | 3.0 | 0.00 | 0.00 | 0.00 | 87 | 1017.7 |
| 20260502064003 | 28 | 187 | 2.0 | 3.0 | 0.00 | 0.00 | 0.00 | 87 | 1017.7 |
| 20260502062003 | 28 | 187 | 3.0 | 3.0 | 0.00 | 0.00 | 0.00 | 87 | 1017.7 |
| 20260502061003 | 28 | 179 | 3.0 | 3.0 | 0.00 | 0.00 | 0.00 | 86 | 1017.7 |
| 20260502060003 | 28 | 178 | 2.0 | 3.0 | 0.00 | 0.00 | 0.00 | 86 | 1017.7 |
| 20260502055003 | 29 | 184 | 2.0 | 3.0 | 0.00 | 0.00 | 0.00 | 85 | 1017.7 |
| 20260502054003 | 29 | 184 | 1.0 | 3.0 | 0.00 | 0.00 | 0.00 | 85 | 1017.7 |
| 20260502053003 | 29 | 184 | 2.0 | 3.0 | 0.00 | 0.00 | 0.00 | 84 | 1017.7 |
| 20260502052003 | 29 | 184 | 3.0 | 3.0 | 0.00 | 0.00 | 0.00 | 84 | 1017.7 |
| 20260502051003 | 29 | 181 | 3.0 | 5.0 | 0.00 | 0.00 | 0.00 | 83 | 1017.7 |
| 20260502050003 | 29 | 177 | 3.0 | 5.0 | 0.00 | 0.00 | 0.00 | 82 | 1017.7 |
| 20260502045003 | 29 | 177 | 3.0 | 5.0 | 0.00 | 0.00 | 0.00 | 82 | 1017.7 |
| 20260502044003 | 29 | 190 | 2.0 | 3.0 | 0.00 | 0.00 | 0.00 | 81 | 1017.7 |
| 20260502042003 | 30 | 203 | 2.0 | 3.0 | 0.00 | 0.00 | 0.00 | 79 | 1017.7 |
| 20260502041003 | 30 | 213 | 2.0 | 3.0 | 0.00 | 0.00 | 0.00 | 77 | 1017.7 |
| 20260502040002 | 30 | 186 | 2.0 | 3.0 | 0.00 | 0.00 | 0.00 | 76 | 1017.7 |
| 20260502035003 | 30 | 78 | 0.0 | 0.0 | 0.00 | 0.00 | 0.00 | 75 | 1017.7 |
| 20260502034003 | 31 | 78 | 0.0 | 0.0 | 0.00 | 0.00 | 0.00 | 72 | 1017.7 |
| 20260502033003 | 31 | 78 | 0.0 | 0.0 | 0.00 | 0.00 | 0.00 | 71 | 1017.6 |
| 20260502030002 | 33 | 78 | 1.0 | 2.0 | 0.00 | 0.00 | 0.00 | 68 | 1017.6 |
| 20260502025003 | 34 | 78 | 2.0 | 6.0 | 0.00 | 0.00 | 0.00 | 63 | 1017.6 |
| 20260502024003 | 35 | 78 | 5.0 | 6.0 | 0.00 | 0.00 | 0.00 | 65 | 1017.6 |
| 20260502023003 | 35 | 78 | 3.0 | 6.0 | 0.00 | 0.00 | 0.00 | 63 | 1017.6 |
| 20260502022003 | 36 | 78 | 3.0 | 6.0 | 0.00 | 0.00 | 0.00 | 63 | 1017.6 |
| 20260502021003 | 37 | 74 | 3.0 | 6.0 | 0.00 | 0.00 | 0.00 | 62 | 1017.6 |